Edinburgh, Indiana
Current Conditions -  °F | °C
As of 2:50 PM on Sunday 25 Jan 2015 (Local Time) from KBAK Reporting Station
Overcast Overcast  
Wind Chill: 33°   Ceiling: 3000
Heat Index: 37°   Visibility: 7mi
Dew Point: 34°   Wind: 6mph
Humidity: 87%   Direction: 150°SSE
Pressure: 29.62"   Gusts: NA
Location:  39.35°N, 85.97°W
Report Text: KBAK 251950Z 15005KT 7SM OVC030 03/01 A2962
Loading
Personal Weather Stations






























Interactive Weather Map New forecast layout! Learn more

10-Day Weather Forecast

Advertisements
Track Severe Weather on mobile